createdAt,value
2018-12-21T00:01:09.465Z,3.17
2018-12-21T00:03:13.835Z,3.37
2018-12-21T00:05:18.027Z,2.90
2018-12-21T00:07:22.365Z,2.70
2018-12-21T00:09:27.090Z,3.20
2018-12-21T00:11:31.307Z,2.93
2018-12-21T00:13:35.734Z,2.83
2018-12-21T00:15:40.040Z,2.90
2018-12-21T00:17:44.441Z,3.47
2018-12-21T00:19:48.871Z,3.03
2018-12-21T00:21:52.956Z,2.47
2018-12-21T00:23:57.292Z,2.63
2018-12-21T00:26:01.593Z,2.80
2018-12-21T00:28:05.909Z,3.10
2018-12-21T00:30:12.138Z,2.50
2018-12-21T00:32:21.443Z,2.70
2018-12-21T00:34:30.870Z,2.73
2018-12-21T00:36:40.136Z,3.07
2018-12-21T00:38:49.450Z,2.77
2018-12-21T00:40:58.631Z,2.67
2018-12-21T00:43:11.304Z,2.80
2018-12-21T00:45:21.061Z,2.47
2018-12-21T00:47:25.296Z,2.63
2018-12-21T00:49:29.698Z,2.80
2018-12-21T00:51:33.939Z,2.60
2018-12-21T00:53:38.202Z,2.50
2018-12-21T00:55:42.542Z,3.10
2018-12-21T00:57:46.874Z,2.07
2018-12-21T00:59:51.248Z,2.70
2018-12-21T01:01:55.503Z,3.20
2018-12-21T01:03:59.824Z,2.47
2018-12-21T01:06:04.145Z,2.90
2018-12-21T01:08:08.463Z,2.37
2018-12-21T01:10:13.355Z,2.40
2018-12-21T01:12:17.762Z,2.70
2018-12-21T01:14:22.062Z,3.10
2018-12-21T01:16:26.633Z,3.17
2018-12-21T01:18:30.771Z,2.30
2018-12-21T01:20:35.065Z,2.80
2018-12-21T01:22:39.359Z,2.37
2018-12-21T01:24:43.594Z,2.70
2018-12-21T01:26:47.851Z,2.80
2018-12-21T01:28:52.135Z,3.80
2018-12-21T01:30:56.534Z,2.73
2018-12-21T01:33:00.818Z,2.90
2018-12-21T01:35:05.282Z,2.70
2018-12-21T01:37:09.418Z,3.40
2018-12-21T01:39:13.685Z,3.23
2018-12-21T01:41:18.299Z,2.67
2018-12-21T01:43:22.420Z,2.30
2018-12-21T01:45:33.173Z,2.30
2018-12-21T01:47:37.370Z,2.60
2018-12-21T01:49:41.572Z,3.23
2018-12-21T01:51:47.235Z,2.73
2018-12-21T01:53:52.002Z,2.20
2018-12-21T01:55:56.174Z,2.43
2018-12-21T01:58:00.390Z,2.53
2018-12-21T02:00:05.124Z,2.73
2018-12-21T02:02:09.897Z,1.80
2018-12-21T02:04:14.261Z,2.20
2018-12-21T02:06:18.479Z,2.43
2018-12-21T02:08:22.723Z,2.30
2018-12-21T02:10:26.985Z,2.50
2018-12-21T02:12:31.514Z,2.17
2018-12-21T02:14:35.635Z,2.40
2018-12-21T02:16:39.962Z,2.43
2018-12-21T02:18:44.141Z,2.10
2018-12-21T02:20:48.566Z,2.73
2018-12-21T02:22:52.847Z,2.43
2018-12-21T02:24:57.103Z,2.13
2018-12-21T02:27:01.487Z,2.03
2018-12-21T02:29:05.732Z,2.10
2018-12-21T02:31:10.030Z,2.00
2018-12-21T02:33:14.509Z,2.00
2018-12-21T02:35:19.187Z,2.10
2018-12-21T02:37:23.299Z,2.07
2018-12-21T02:39:27.504Z,1.63
2018-12-21T02:41:31.718Z,1.97
2018-12-21T02:43:35.933Z,1.70
2018-12-21T02:45:40.058Z,1.70
2018-12-21T02:47:44.557Z,1.90
2018-12-21T02:49:48.836Z,2.40
2018-12-21T02:51:53.167Z,1.90
2018-12-21T02:53:57.358Z,2.30
2018-12-21T02:56:01.632Z,2.10
2018-12-21T02:58:05.702Z,1.90
2018-12-21T03:00:11.147Z,2.13
2018-12-21T03:02:15.574Z,2.23
2018-12-21T03:04:34.504Z,1.57
2018-12-21T03:06:38.638Z,2.20
2018-12-21T03:08:42.954Z,2.07
2018-12-21T03:10:47.199Z,1.97
2018-12-21T03:12:51.552Z,2.23
2018-12-21T03:14:55.782Z,2.03
2018-12-21T03:17:00.341Z,2.10
2018-12-21T03:19:04.735Z,1.60
2018-12-21T03:21:09.015Z,1.90
2018-12-21T03:23:13.187Z,1.50
2018-12-21T03:25:17.574Z,1.90
2018-12-21T03:27:21.882Z,2.60
2018-12-21T03:29:26.253Z,2.07
2018-12-21T03:31:30.412Z,1.93
2018-12-21T03:33:34.719Z,2.07
2018-12-21T03:35:38.820Z,1.80
2018-12-21T03:37:43.163Z,1.53
2018-12-21T03:39:47.656Z,2.00
2018-12-21T03:41:52.079Z,1.83
2018-12-21T03:43:56.505Z,2.20
2018-12-21T03:46:01.711Z,1.83
2018-12-21T03:48:06.181Z,2.47
2018-12-21T03:50:10.602Z,1.60
2018-12-21T03:52:24.017Z,1.73
2018-12-21T03:54:21.269Z,1.67
2018-12-21T03:56:25.484Z,1.70
2018-12-21T03:58:29.876Z,2.10
2018-12-21T04:00:34.402Z,1.83
2018-12-21T04:02:38.789Z,1.40
2018-12-21T04:04:43.215Z,1.73
2018-12-21T04:06:47.693Z,1.20
2018-12-21T04:08:51.863Z,1.50
2018-12-21T04:10:56.105Z,1.27
2018-12-21T04:13:00.411Z,1.40
2018-12-21T04:15:05.339Z,1.93
2018-12-21T04:17:09.757Z,1.47
2018-12-21T04:19:13.960Z,1.47
2018-12-21T04:21:18.383Z,1.50
2018-12-21T04:23:22.732Z,1.50
2018-12-21T04:25:27.110Z,1.40
2018-12-21T04:27:31.321Z,1.50
2018-12-21T04:29:35.664Z,1.30
2018-12-21T04:31:39.946Z,1.70
2018-12-21T04:33:44.187Z,1.50
2018-12-21T04:35:48.497Z,1.33
2018-12-21T04:37:52.922Z,1.40
2018-12-21T04:39:57.206Z,1.60
2018-12-21T04:42:01.401Z,1.20
2018-12-21T04:44:05.731Z,1.50
2018-12-21T04:46:10.157Z,1.60
2018-12-21T04:48:14.387Z,1.63
2018-12-21T04:50:18.743Z,1.20
2018-12-21T04:52:22.984Z,1.30
2018-12-21T04:54:27.234Z,1.20
2018-12-21T04:56:31.735Z,1.40
2018-12-21T04:58:35.982Z,1.43
2018-12-21T05:00:40.204Z,1.53
2018-12-21T05:02:44.491Z,1.53
2018-12-21T05:04:48.818Z,1.73
2018-12-21T05:06:53.131Z,1.20
2018-12-21T05:08:57.600Z,1.20
2018-12-21T05:11:01.847Z,1.20
2018-12-21T05:13:06.212Z,1.33
2018-12-21T05:15:10.364Z,1.60
2018-12-21T05:17:14.719Z,1.30
2018-12-21T05:19:18.973Z,1.20
2018-12-21T05:21:23.231Z,1.90
2018-12-21T05:23:27.538Z,1.50
2018-12-21T05:25:31.727Z,1.43
2018-12-21T05:27:36.103Z,1.20
2018-12-21T05:29:40.465Z,1.50
2018-12-21T05:31:44.766Z,1.50
2018-12-21T05:33:49.020Z,1.30
2018-12-21T05:35:53.246Z,1.33
2018-12-21T05:37:57.283Z,1.30
2018-12-21T05:40:01.780Z,1.67
2018-12-21T05:42:06.174Z,1.40
2018-12-21T05:44:10.488Z,1.60
2018-12-21T05:46:14.798Z,1.10
2018-12-21T05:48:19.085Z,1.43
2018-12-21T05:50:23.395Z,1.60
2018-12-21T05:52:27.968Z,1.80
2018-12-21T05:54:32.220Z,1.60
2018-12-21T05:56:36.289Z,1.70
2018-12-21T05:58:41.694Z,1.90
2018-12-21T06:00:46.014Z,1.90
2018-12-21T06:02:50.466Z,2.00
2018-12-21T06:04:54.750Z,2.07
2018-12-21T06:06:58.992Z,2.03
2018-12-21T06:09:04.486Z,2.07
2018-12-21T06:11:08.783Z,2.30
2018-12-21T06:13:13.148Z,2.50
2018-12-21T06:15:17.558Z,2.30
2018-12-21T06:17:21.651Z,2.30
2018-12-21T06:19:25.985Z,2.03
2018-12-21T06:21:30.289Z,1.50
2018-12-21T06:23:34.571Z,1.20
2018-12-21T06:25:38.691Z,1.40
2018-12-21T06:27:43.339Z,1.37
2018-12-21T06:29:47.772Z,1.30
2018-12-21T06:31:51.971Z,1.10
2018-12-21T06:33:56.292Z,1.10
2018-12-21T06:36:00.609Z,1.30
2018-12-21T06:38:04.918Z,1.20
2018-12-21T06:40:09.357Z,1.13
2018-12-21T06:42:13.852Z,1.00
2018-12-21T06:44:18.179Z,1.10
2018-12-21T06:46:22.580Z,1.30
2018-12-21T06:48:27.128Z,1.20
2018-12-21T06:50:31.828Z,1.10
2018-12-21T06:52:36.067Z,1.40
2018-12-21T06:54:40.487Z,1.27
2018-12-21T06:56:44.956Z,1.30
2018-12-21T06:58:49.343Z,1.00
2018-12-21T07:00:53.920Z,1.30
2018-12-21T07:02:58.109Z,1.47
2018-12-21T07:05:02.449Z,1.00
2018-12-21T07:07:07.052Z,0.83
2018-12-21T07:09:11.286Z,0.70
2018-12-21T07:11:15.473Z,0.87
2018-12-21T07:13:19.939Z,1.30
2018-12-21T07:15:24.334Z,0.93
2018-12-21T07:17:28.441Z,0.80
2018-12-21T07:19:32.706Z,0.80
2018-12-21T07:21:37.101Z,0.70
2018-12-21T07:23:42.026Z,0.77
2018-12-21T07:25:46.574Z,0.90
2018-12-21T07:27:51.091Z,0.70
2018-12-21T07:29:55.547Z,0.90
2018-12-21T07:31:59.977Z,0.70
2018-12-21T07:34:04.393Z,0.80
2018-12-21T07:36:09.620Z,0.80
2018-12-21T07:38:13.940Z,0.70
2018-12-21T07:40:18.141Z,0.90
2018-12-21T07:42:22.370Z,0.70
2018-12-21T07:44:26.573Z,0.80
2018-12-21T07:46:31.368Z,0.90
2018-12-21T07:48:35.911Z,0.87
2018-12-21T07:50:41.212Z,0.70
2018-12-21T07:52:45.562Z,0.80
2018-12-21T07:54:49.966Z,1.00
2018-12-21T07:56:54.258Z,0.90
2018-12-21T07:58:58.633Z,1.00
2018-12-21T08:01:02.921Z,1.00
2018-12-21T08:03:07.076Z,1.07
2018-12-21T08:05:11.313Z,0.80
2018-12-21T08:07:15.669Z,0.90
2018-12-21T08:09:19.824Z,0.90
2018-12-21T08:11:24.273Z,1.23
2018-12-21T08:13:28.582Z,1.00
2018-12-21T08:15:32.826Z,0.83
2018-12-21T08:17:37.145Z,0.80
2018-12-21T08:19:43.481Z,0.90
2018-12-21T08:21:47.903Z,0.83
2018-12-21T08:23:52.120Z,1.10
2018-12-21T08:25:56.447Z,0.80
2018-12-21T08:28:00.862Z,0.90
2018-12-21T08:30:05.698Z,0.90
2018-12-21T08:32:10.578Z,1.00
2018-12-21T08:34:15.043Z,0.93
2018-12-21T08:36:20.251Z,1.00
2018-12-21T08:38:24.663Z,1.00
2018-12-21T08:40:28.985Z,1.00
2018-12-21T08:42:33.329Z,1.10
2018-12-21T08:44:37.427Z,3.30
2018-12-21T08:46:41.676Z,0.80
2018-12-21T08:48:46.156Z,0.80
2018-12-21T08:50:50.686Z,0.90
2018-12-21T08:52:54.984Z,0.83
2018-12-21T08:54:59.318Z,1.00
2018-12-21T08:57:03.790Z,0.80
2018-12-21T08:59:08.038Z,0.90
2018-12-21T09:01:12.316Z,1.00
2018-12-21T09:03:16.659Z,1.00
2018-12-21T09:05:20.974Z,0.80
2018-12-21T09:07:25.087Z,0.80
2018-12-21T09:09:29.631Z,0.83
2018-12-21T09:11:33.704Z,0.73
2018-12-21T09:13:38.247Z,1.00
2018-12-21T09:15:42.516Z,0.93
2018-12-21T09:17:46.857Z,0.90
2018-12-21T09:19:51.162Z,1.30
2018-12-21T09:21:55.384Z,0.80
2018-12-21T09:24:01.196Z,0.90
2018-12-21T09:26:05.889Z,0.80
2018-12-21T09:28:10.278Z,0.90
2018-12-21T09:30:15.138Z,2.43
2018-12-21T09:32:19.400Z,0.80
2018-12-21T09:34:23.702Z,0.80
2018-12-21T09:36:27.947Z,0.80
2018-12-21T09:38:32.168Z,0.70
2018-12-21T09:40:36.593Z,1.10
2018-12-21T09:42:40.729Z,1.00
2018-12-21T09:44:52.347Z,0.73
2018-12-21T09:46:51.478Z,0.90
2018-12-21T09:48:55.745Z,0.90
2018-12-21T09:51:00.313Z,0.80
2018-12-21T09:53:04.786Z,0.80
2018-12-21T09:55:09.245Z,1.20
2018-12-21T09:57:13.465Z,1.30
2018-12-21T09:59:17.640Z,3.67
2018-12-21T10:01:21.990Z,1.50
2018-12-21T10:03:26.050Z,1.83
2018-12-21T10:05:30.497Z,1.50
2018-12-21T10:07:34.680Z,1.73
2018-12-21T10:09:39.305Z,1.30
2018-12-21T10:11:43.656Z,1.70
2018-12-21T10:13:47.863Z,1.97
2018-12-21T10:15:52.095Z,1.90
2018-12-21T10:17:56.288Z,2.10
2018-12-21T10:20:00.502Z,1.90
2018-12-21T10:22:04.790Z,1.20
2018-12-21T10:24:09.063Z,1.20
2018-12-21T10:26:13.350Z,1.80
2018-12-21T10:28:17.668Z,1.40
2018-12-21T10:30:22.087Z,5.60
2018-12-21T10:32:26.280Z,4.07
2018-12-21T10:34:30.412Z,3.33
2018-12-21T10:36:34.810Z,2.87
2018-12-21T10:38:39.045Z,4.60
2018-12-21T10:40:43.456Z,2.03
2018-12-21T10:42:47.968Z,1.90
2018-12-21T10:44:52.098Z,2.50
2018-12-21T10:46:56.272Z,3.63
2018-12-21T10:49:00.709Z,2.40
2018-12-21T10:51:05.064Z,2.50
2018-12-21T10:53:09.450Z,4.07
2018-12-21T10:55:13.759Z,2.03
2018-12-21T10:57:18.182Z,3.43
2018-12-21T10:59:22.682Z,2.67
2018-12-21T11:01:26.960Z,1.57
2018-12-21T11:03:31.082Z,2.60
2018-12-21T11:05:35.451Z,1.27
2018-12-21T11:07:39.600Z,2.50
2018-12-21T11:09:43.842Z,3.80
2018-12-21T11:11:48.125Z,6.17
2018-12-21T11:13:52.375Z,3.00
2018-12-21T11:15:56.588Z,2.30
2018-12-21T11:18:00.985Z,1.10
2018-12-21T11:20:06.137Z,1.10
2018-12-21T11:22:10.416Z,1.10
2018-12-21T11:24:14.765Z,1.20
2018-12-21T11:26:19.072Z,1.00
2018-12-21T11:28:25.524Z,3.00
2018-12-21T11:30:29.876Z,1.77
2018-12-21T11:32:34.252Z,2.50
2018-12-21T11:34:38.403Z,1.67
2018-12-21T11:36:42.675Z,1.60
2018-12-21T11:38:46.849Z,1.10
2018-12-21T11:40:51.046Z,1.10
2018-12-21T11:42:55.303Z,1.10
2018-12-21T11:44:59.748Z,1.10
2018-12-21T11:47:04.135Z,1.30
2018-12-21T11:49:08.350Z,1.60
2018-12-21T11:51:12.709Z,1.70
2018-12-21T11:53:16.906Z,1.80
2018-12-21T11:55:21.102Z,1.07
2018-12-21T11:57:25.394Z,1.07
2018-12-21T11:59:29.644Z,0.83
2018-12-21T12:01:34.053Z,1.00
2018-12-21T12:03:38.403Z,0.90
2018-12-21T12:05:42.585Z,1.00
2018-12-21T12:07:46.802Z,1.00
2018-12-21T12:09:51.118Z,3.40
2018-12-21T12:11:55.356Z,3.03
2018-12-21T12:13:59.449Z,3.07
2018-12-21T12:16:03.763Z,1.00
2018-12-21T12:18:08.075Z,1.47
2018-12-21T12:20:12.375Z,1.77
2018-12-21T12:22:16.725Z,0.97
2018-12-21T12:24:20.884Z,1.17
2018-12-21T12:26:25.023Z,1.43
2018-12-21T12:28:29.249Z,2.70
2018-12-21T12:30:33.452Z,2.80
2018-12-21T12:32:37.885Z,2.60
2018-12-21T12:34:42.094Z,1.73
2018-12-21T12:36:46.380Z,2.17
2018-12-21T12:38:50.808Z,2.00
2018-12-21T12:40:54.971Z,2.67
2018-12-21T12:42:59.266Z,4.00
2018-12-21T12:45:03.617Z,1.50
2018-12-21T12:47:07.968Z,3.93
2018-12-21T12:49:12.400Z,3.50
2018-12-21T12:51:16.504Z,4.90
2018-12-21T12:53:20.714Z,4.17
2018-12-21T12:55:24.932Z,2.40
2018-12-21T12:57:29.230Z,3.80
2018-12-21T12:59:33.568Z,4.93
2018-12-21T13:01:37.875Z,6.87
2018-12-21T13:03:42.084Z,4.60
2018-12-21T13:05:46.428Z,6.13
2018-12-21T13:07:50.917Z,4.53
2018-12-21T13:09:55.237Z,3.33
2018-12-21T13:11:59.555Z,4.00
2018-12-21T13:14:03.730Z,4.13
2018-12-21T13:16:08.193Z,7.10
2018-12-21T13:18:12.486Z,3.50
2018-12-21T13:20:16.821Z,5.90
2018-12-21T13:22:21.091Z,5.87
2018-12-21T13:24:25.402Z,7.77
2018-12-21T13:26:29.857Z,10.67
2018-12-21T13:28:34.029Z,6.90
2018-12-21T13:30:38.294Z,6.93
2018-12-21T13:32:42.560Z,3.47
2018-12-21T13:34:46.773Z,3.37
2018-12-21T13:36:50.955Z,2.90
2018-12-21T13:38:55.366Z,2.80
2018-12-21T13:40:59.826Z,1.40
2018-12-21T13:43:04.066Z,2.33
2018-12-21T13:45:10.279Z,2.30
2018-12-21T13:47:14.730Z,1.63
2018-12-21T13:49:18.825Z,2.00
2018-12-21T13:51:23.085Z,2.10
2018-12-21T13:53:27.370Z,2.67
2018-12-21T13:55:31.651Z,2.47
2018-12-21T13:57:35.871Z,1.90
2018-12-21T13:59:40.311Z,2.03
2018-12-21T14:01:44.830Z,2.03
2018-12-21T14:03:49.142Z,2.77
2018-12-21T14:05:53.253Z,2.73
2018-12-21T14:07:57.568Z,2.63
2018-12-21T14:10:01.844Z,2.43
2018-12-21T14:12:05.997Z,5.43
2018-12-21T14:14:10.297Z,4.50
2018-12-21T14:16:14.537Z,3.03
2018-12-21T14:18:19.116Z,3.60
2018-12-21T14:20:23.403Z,3.60
2018-12-21T14:22:28.908Z,3.50
2018-12-21T14:24:33.264Z,3.80
2018-12-21T14:26:37.541Z,3.73
2018-12-21T14:28:42.647Z,4.20
2018-12-21T14:30:47.037Z,4.20
2018-12-21T14:32:51.305Z,4.60
2018-12-21T14:34:55.713Z,4.30
2018-12-21T14:36:59.826Z,8.50
2018-12-21T14:39:05.076Z,4.10
2018-12-21T14:41:09.692Z,4.00
2018-12-21T14:43:13.891Z,4.87
2018-12-21T14:45:18.202Z,4.70
2018-12-21T14:47:22.576Z,4.60
2018-12-21T14:49:26.943Z,5.20
2018-12-21T14:51:31.237Z,5.07
2018-12-21T14:53:35.574Z,4.87
2018-12-21T14:55:39.955Z,4.80
2018-12-21T14:57:44.377Z,4.60
2018-12-21T14:59:48.627Z,4.70
2018-12-21T15:01:52.923Z,4.70
2018-12-21T15:03:57.241Z,5.83
2018-12-21T15:06:01.451Z,4.07
2018-12-21T15:08:05.656Z,4.90
2018-12-21T15:10:10.960Z,4.73
2018-12-21T15:12:15.222Z,4.77
2018-12-21T15:14:19.445Z,5.73
2018-12-21T15:16:23.655Z,6.37
2018-12-21T15:18:28.187Z,4.10
2018-12-21T15:20:32.475Z,5.10
2018-12-21T15:22:36.673Z,5.13
2018-12-21T15:24:41.013Z,5.50
2018-12-21T15:26:45.238Z,5.60
2018-12-21T15:28:49.535Z,5.40
2018-12-21T15:30:53.933Z,5.63
2018-12-21T15:32:58.290Z,5.27
2018-12-21T15:35:02.551Z,5.27
2018-12-21T15:37:06.941Z,6.07
2018-12-21T15:39:11.290Z,5.40
2018-12-21T15:41:15.526Z,5.47
2018-12-21T15:43:19.814Z,6.23
2018-12-21T15:45:24.247Z,6.00
2018-12-21T15:47:28.524Z,4.73
2018-12-21T15:49:32.774Z,5.30
2018-12-21T15:51:37.176Z,5.10
2018-12-21T15:53:41.512Z,4.97
2018-12-21T15:55:54.451Z,5.37
2018-12-21T15:57:52.051Z,5.53
2018-12-21T15:59:56.183Z,6.47
2018-12-21T16:02:00.414Z,6.30
2018-12-21T16:04:04.617Z,5.97
2018-12-21T16:06:09.004Z,5.37
2018-12-21T16:08:13.164Z,9.30
2018-12-21T16:10:17.603Z,6.47
2018-12-21T16:12:21.906Z,6.43
2018-12-21T16:14:34.026Z,8.47
2018-12-21T16:16:32.547Z,7.10
2018-12-21T16:18:37.061Z,7.13
2018-12-21T16:20:41.352Z,6.50
2018-12-21T16:22:45.604Z,6.10
2018-12-21T16:24:49.895Z,9.00
2018-12-21T16:26:54.103Z,9.07
2018-12-21T16:28:58.436Z,12.70
2018-12-21T16:31:02.678Z,7.00
2018-12-21T16:33:06.943Z,8.20
2018-12-21T16:35:11.416Z,6.87
2018-12-21T16:37:15.802Z,7.50
2018-12-21T16:39:20.147Z,7.23
2018-12-21T16:41:24.231Z,7.07
2018-12-21T16:43:28.413Z,6.50
2018-12-21T16:45:32.749Z,9.87
2018-12-21T16:47:37.055Z,8.73
2018-12-21T16:49:41.382Z,7.63
2018-12-21T16:51:45.651Z,14.53
2018-12-21T16:53:50.139Z,12.10
2018-12-21T16:55:54.482Z,8.40
2018-12-21T16:57:58.851Z,7.90
2018-12-21T17:00:03.130Z,8.10
2018-12-21T17:02:07.440Z,7.80
2018-12-21T17:04:11.760Z,7.60
2018-12-21T17:06:16.117Z,8.97
2018-12-21T17:08:20.448Z,9.03
2018-12-21T17:10:25.413Z,9.30
2018-12-21T17:12:30.157Z,8.37
2018-12-21T17:14:34.585Z,8.00
2018-12-21T17:16:39.217Z,8.43
2018-12-21T17:18:43.515Z,8.07
2018-12-21T17:20:47.939Z,9.00
2018-12-21T17:22:52.108Z,8.63
2018-12-21T17:24:56.362Z,7.87
2018-12-21T17:27:00.695Z,12.83
2018-12-21T17:29:04.983Z,13.17
2018-12-21T17:31:09.306Z,13.70
2018-12-21T17:33:13.538Z,17.73
2018-12-21T17:35:17.842Z,14.87
2018-12-21T17:37:22.141Z,20.47
2018-12-21T17:39:26.466Z,8.90
2018-12-21T17:41:30.696Z,6.60
2018-12-21T17:43:35.091Z,6.93
2018-12-21T17:45:39.409Z,7.70
2018-12-21T17:47:43.921Z,5.97
2018-12-21T17:49:48.255Z,6.97
2018-12-21T17:52:01.101Z,8.37
2018-12-21T17:53:58.919Z,7.37
2018-12-21T17:56:03.312Z,6.53
2018-12-21T17:58:07.760Z,8.37
2018-12-21T18:00:19.785Z,8.20
2018-12-21T18:02:24.164Z,7.70
2018-12-21T18:04:29.873Z,8.37
2018-12-21T18:06:35.469Z,6.40
2018-12-21T18:08:39.661Z,5.40
2018-12-21T18:10:43.984Z,7.40
2018-12-21T18:12:48.384Z,7.67
2018-12-21T18:14:52.837Z,6.93
2018-12-21T18:16:57.136Z,7.23
2018-12-21T18:19:01.347Z,8.27
2018-12-21T18:21:21.952Z,7.20
2018-12-21T18:23:26.787Z,7.23
2018-12-21T18:25:31.445Z,5.93
2018-12-21T18:27:37.110Z,6.17
2018-12-21T18:29:43.100Z,6.90
2018-12-21T18:32:55.667Z,6.90
2018-12-21T18:35:04.252Z,7.30
2018-12-21T18:37:10.246Z,6.50
2018-12-21T18:39:14.542Z,6.53
2018-12-21T18:41:18.907Z,8.40
2018-12-21T18:43:23.141Z,7.10
2018-12-21T18:45:27.492Z,7.80
2018-12-21T18:47:32.003Z,7.27
2018-12-21T18:49:36.300Z,7.13
2018-12-21T18:51:41.443Z,6.90
2018-12-21T18:53:46.209Z,7.40
2018-12-21T18:55:54.790Z,7.20
2018-12-21T18:57:59.556Z,6.43
2018-12-21T19:01:32.192Z,7.27
2018-12-21T19:03:36.335Z,8.07
2018-12-21T19:05:40.809Z,6.97
2018-12-21T19:07:45.529Z,6.60
2018-12-21T19:09:50.231Z,6.10
2018-12-21T19:11:54.558Z,8.37
2018-12-21T19:13:59.087Z,6.60
2018-12-21T19:16:03.569Z,5.70
2018-12-21T19:18:08.112Z,7.13
2018-12-21T19:20:13.030Z,6.60
2018-12-21T19:22:17.352Z,6.93
2018-12-21T19:24:22.103Z,5.80
2018-12-21T19:26:26.794Z,5.80
2018-12-21T19:28:31.321Z,6.30
2018-12-21T19:30:35.644Z,5.90
2018-12-21T19:32:41.361Z,6.03
2018-12-21T19:34:45.804Z,7.10
2018-12-21T19:36:49.999Z,6.03
2018-12-21T19:38:54.138Z,6.57
2018-12-21T19:40:58.298Z,7.17
2018-12-21T19:43:02.631Z,5.40
2018-12-21T19:45:09.261Z,7.43
2018-12-21T19:47:15.165Z,6.00
2018-12-21T19:49:19.877Z,6.80
2018-12-21T19:51:24.154Z,7.23
2018-12-21T19:53:28.602Z,6.17
2018-12-21T19:56:17.627Z,6.37
2018-12-21T19:58:22.131Z,7.10
2018-12-21T20:00:26.482Z,7.37
2018-12-21T20:02:30.945Z,15.47
2018-12-21T20:04:35.352Z,8.50
2018-12-21T20:06:40.711Z,7.33
2018-12-21T20:08:45.114Z,7.07
2018-12-21T20:10:49.486Z,6.33
2018-12-21T20:12:53.913Z,6.57
2018-12-21T20:14:58.257Z,6.80
2018-12-21T20:17:02.626Z,7.13
2018-12-21T20:19:07.550Z,8.40
2018-12-21T20:21:12.506Z,7.10
2018-12-21T20:23:17.062Z,6.30
2018-12-21T20:25:21.475Z,6.47
2018-12-21T20:27:25.885Z,7.10
2018-12-21T20:29:30.095Z,6.33
2018-12-21T20:31:34.341Z,6.13
2018-12-21T20:33:38.832Z,6.17
2018-12-21T20:35:43.505Z,6.93
2018-12-21T20:37:47.976Z,6.97
2018-12-21T20:39:52.341Z,6.00
2018-12-21T20:41:56.876Z,7.27
2018-12-21T20:44:01.234Z,6.43
2018-12-21T20:46:05.545Z,6.37
2018-12-21T20:48:09.654Z,6.77
2018-12-21T20:50:15.951Z,7.90
2018-12-21T20:52:20.326Z,6.93
2018-12-21T20:54:24.691Z,6.33
2018-12-21T20:56:29.046Z,6.83
2018-12-21T20:58:42.158Z,6.93
2018-12-21T21:00:46.622Z,8.77
2018-12-21T21:02:50.912Z,6.53
2018-12-21T21:04:56.568Z,7.23
2018-12-21T21:07:00.731Z,7.00
2018-12-21T21:09:06.835Z,7.43
2018-12-21T21:11:11.233Z,8.20
2018-12-21T21:13:19.216Z,8.17
2018-12-21T21:15:21.840Z,7.93
2018-12-21T21:17:26.081Z,8.20
2018-12-21T21:19:33.923Z,7.83
2018-12-21T21:21:38.452Z,7.57
2018-12-21T21:23:42.741Z,8.73
2018-12-21T21:25:47.141Z,7.90
2018-12-21T21:27:52.530Z,8.90
2018-12-21T21:29:58.784Z,8.10
2018-12-21T21:32:03.283Z,7.57
2018-12-21T21:34:07.633Z,8.70
2018-12-21T21:36:12.291Z,7.37
2018-12-21T21:38:16.657Z,7.30
2018-12-21T21:40:21.185Z,10.53
2018-12-21T21:42:25.250Z,7.70
2018-12-21T21:44:30.452Z,7.97
2018-12-21T21:46:36.304Z,6.87
2018-12-21T21:48:40.557Z,7.17
2018-12-21T21:50:45.637Z,6.93
2018-12-21T21:52:51.343Z,7.50
2018-12-21T21:54:56.701Z,9.40
2018-12-21T21:57:01.206Z,12.13
2018-12-21T21:59:05.734Z,12.87
2018-12-21T22:01:10.348Z,7.17
2018-12-21T22:03:15.189Z,7.50
2018-12-21T22:05:19.695Z,8.93
2018-12-21T22:07:26.371Z,6.73
2018-12-21T22:09:31.129Z,7.23
2018-12-21T22:11:36.114Z,8.23
2018-12-21T22:13:40.531Z,8.87
2018-12-21T22:15:45.684Z,8.17
2018-12-21T22:17:50.172Z,7.40
2018-12-21T22:19:54.716Z,7.47
2018-12-21T22:21:59.002Z,6.53
2018-12-21T22:24:03.446Z,7.90
2018-12-21T22:26:07.625Z,7.57
2018-12-21T22:28:12.068Z,7.90
2018-12-21T22:30:16.383Z,7.20
2018-12-21T22:32:22.157Z,7.60
2018-12-21T22:34:26.654Z,7.93
2018-12-21T22:36:31.151Z,8.23
2018-12-21T22:38:35.495Z,7.67
2018-12-21T22:40:39.721Z,8.37
2018-12-21T22:42:44.310Z,6.60
2018-12-21T22:44:48.839Z,8.43
2018-12-21T22:46:53.312Z,7.87
2018-12-21T22:48:57.688Z,8.07
2018-12-21T22:51:02.085Z,9.40
2018-12-21T22:53:06.464Z,7.27
2018-12-21T22:55:11.008Z,7.70
2018-12-21T22:57:15.617Z,7.60
2018-12-21T22:59:19.996Z,7.53
2018-12-21T23:01:24.389Z,7.67
2018-12-21T23:03:29.014Z,7.97
2018-12-21T23:05:33.291Z,7.50
2018-12-21T23:07:37.441Z,8.40
2018-12-21T23:09:41.793Z,8.33
2018-12-21T23:11:46.165Z,7.23
2018-12-21T23:13:50.471Z,9.07
2018-12-21T23:15:54.811Z,6.43
2018-12-21T23:17:59.298Z,7.90
2018-12-21T23:20:03.878Z,7.53
2018-12-21T23:22:08.345Z,8.07
2018-12-21T23:24:12.900Z,8.30
2018-12-21T23:26:17.716Z,7.87
2018-12-21T23:28:22.419Z,7.97
2018-12-21T23:30:26.733Z,7.60
2018-12-21T23:32:31.252Z,7.47
2018-12-21T23:34:35.566Z,7.83
2018-12-21T23:36:39.990Z,8.07
2018-12-21T23:38:44.169Z,8.23
2018-12-21T23:40:48.413Z,7.20
2018-12-21T23:42:52.909Z,7.37
2018-12-21T23:44:57.236Z,7.60
2018-12-21T23:47:01.592Z,6.23
2018-12-21T23:49:05.965Z,7.77
2018-12-21T23:51:10.285Z,7.23
2018-12-21T23:53:14.697Z,8.53
2018-12-21T23:55:19.010Z,8.43
2018-12-21T23:57:23.453Z,7.47
2018-12-21T23:59:27.853Z,8.67
